Time;durP1;ratioP1;P1;durP2;ratioP2;P2;SDS_P1;SDS_P2;PMS_P1;PMS_P2;Temp;Humidity;BMP_temperature;BMP_pressure;BME280_temperature;BME280_humidity;BME280_pressure;Samples;Min_cycle;Max_cycle;Signal;HPM_P1;HPM_P2
2024/04/08 00:00:22;;;;;;;5.20;2.08;;;;;;;;;;5380405;26;19996;-61
2024/04/08 00:02:51;;;;;;;4.53;2.55;;;;;;;;;;5379902;26;20010;-61
2024/04/08 00:05:18;;;;;;;9.75;2.67;;;;;;;;;;5369578;26;19996;-61
2024/04/08 00:07:44;;;;;;;6.30;2.08;;;;;;;;;;5379076;26;20019;-61
2024/04/08 00:10:10;;;;;;;8.65;2.83;;;;;;;;;;5372820;26;20444;-61
2024/04/08 00:12:38;;;;;;;5.07;2.65;;;;;;;;;;5374273;26;20333;-61
2024/04/08 00:15:05;;;;;;;6.28;2.92;;;;;;;;;;5362141;26;20020;-59
2024/04/08 00:17:31;;;;;;;5.13;2.60;;;;;;;;;;5370415;26;20449;-61
2024/04/08 00:19:57;;;;;;;5.28;2.83;;;;;;;;;;5354218;26;20089;-61
2024/04/08 00:22:23;;;;;;;6.72;2.63;;;;;;;;;;5419073;26;20023;-60
2024/04/08 00:24:55;;;;;;;6.25;2.47;;;;;;;;;;5435206;26;19995;-63
2024/04/08 00:27:21;;;;;;;5.82;2.55;;;;;;;;;;5434798;26;20007;-60
2024/04/08 00:29:47;;;;;;;4.63;2.28;;;;;;;;;;5451018;26;20404;-61
2024/04/08 00:32:14;;;;;;;7.95;3.05;;;;;;;;;;5445808;26;20007;-61
2024/04/08 00:34:40;;;;;;;8.30;2.85;;;;;;;;;;5448156;26;20007;-60
2024/04/08 00:37:07;;;;;;;4.88;2.78;;;;;;;;;;5450534;26;20014;-61
2024/04/08 00:39:33;;;;;;;8.60;2.85;;;;;;;;;;5448335;26;20018;-61
2024/04/08 00:41:59;;;;;;;7.97;2.78;;;;;;;;;;5439148;26;20003;-61
2024/04/08 00:44:25;;;;;;;5.22;2.33;;;;;;;;;;5451569;26;20003;-61
2024/04/08 00:46:52;;;;;;;7.95;2.83;;;;;;;;;;5453960;26;20043;-61
2024/04/08 00:49:19;;;;;;;6.20;2.28;;;;;;;;;;5454560;26;20071;-61
2024/04/08 00:51:45;;;;;;;7.80;2.42;;;;;;;;;;5432807;26;20326;-61
2024/04/08 00:54:12;;;;;;;8.40;3.15;;;;;;;;;;5435518;26;19999;-61
2024/04/08 00:56:42;;;;;;;5.55;2.25;;;;;;;;;;5433634;26;20515;-61
2024/04/08 00:59:09;;;;;;;5.35;2.42;;;;;;;;;;5442857;26;20895;-61
2024/04/08 01:01:36;;;;;;;8.52;2.50;;;;;;;;;;5450709;26;20438;-61
2024/04/08 01:04:02;;;;;;;6.15;2.97;;;;;;;;;;5447393;26;20010;-61
2024/04/08 01:06:28;;;;;;;3.78;2.45;;;;;;;;;;5452733;26;20005;-61
2024/04/08 01:08:54;;;;;;;4.82;2.60;;;;;;;;;;5441786;26;20011;-61
2024/04/08 01:11:20;;;;;;;12.43;2.22;;;;;;;;;;5442556;26;20507;-60
2024/04/08 01:13:46;;;;;;;5.15;2.20;;;;;;;;;;5430920;26;19995;-61
2024/04/08 01:16:12;;;;;;;5.63;2.83;;;;;;;;;;5453248;26;20485;-61
2024/04/08 01:18:38;;;;;;;6.57;2.08;;;;;;;;;;5452019;26;20006;-61
2024/04/08 01:21:05;;;;;;;4.80;2.30;;;;;;;;;;5448414;26;20074;-59
2024/04/08 01:23:37;;;;;;;10.20;2.92;;;;;;;;;;5446049;26;20003;-61
2024/04/08 01:26:03;;;;;;;6.22;2.80;;;;;;;;;;5422226;26;20012;-60
2024/04/08 01:28:29;;;;;;;11.00;2.72;;;;;;;;;;5453101;26;20323;-61
2024/04/08 01:30:55;;;;;;;10.25;2.60;;;;;;;;;;5452739;26;19995;-61
2024/04/08 01:33:21;;;;;;;8.68;2.80;;;;;;;;;;5453400;26;20098;-61
2024/04/08 01:35:47;;;;;;;8.35;2.80;;;;;;;;;;5443377;26;20421;-61
2024/04/08 01:38:13;;;;;;;6.07;2.70;;;;;;;;;;5453666;26;20009;-58
2024/04/08 01:40:39;;;;;;;6.63;2.38;;;;;;;;;;5453798;26;20067;-58
2024/04/08 01:43:05;;;;;;;7.05;2.85;;;;;;;;;;5452888;26;20009;-58
2024/04/08 01:45:31;;;;;;;6.60;2.97;;;;;;;;;;5441363;26;20470;-58
2024/04/08 01:47:57;;;;;;;9.68;3.35;;;;;;;;;;5452349;26;20440;-58
2024/04/08 01:50:23;;;;;;;4.32;2.35;;;;;;;;;;5433015;26;20585;-58
2024/04/08 01:52:49;;;;;;;5.93;2.78;;;;;;;;;;5447314;26;20009;-58
2024/04/08 01:55:15;;;;;;;6.40;2.53;;;;;;;;;;5425362;26;20068;-58
2024/04/08 01:57:41;;;;;;;6.15;2.50;;;;;;;;;;5440042;26;19994;-58
2024/04/08 02:00:07;;;;;;;4.07;2.22;;;;;;;;;;5451215;26;20006;-57
2024/04/08 02:02:33;;;;;;;4.00;2.60;;;;;;;;;;5448146;26;20003;-58
2024/04/08 02:04:59;;;;;;;7.75;2.25;;;;;;;;;;5452238;26;19999;-58
2024/04/08 02:07:25;;;;;;;7.25;3.15;;;;;;;;;;5443861;26;20025;-58
2024/04/08 02:09:51;;;;;;;5.22;2.35;;;;;;;;;;5454005;26;19999;-58
2024/04/08 02:12:17;;;;;;;6.97;2.38;;;;;;;;;;5451815;26;19999;-57
2024/04/08 02:14:43;;;;;;;6.35;2.50;;;;;;;;;;5436467;26;20408;-57
2024/04/08 02:17:09;;;;;;;4.03;2.20;;;;;;;;;;5440137;26;20436;-57
2024/04/08 02:19:35;;;;;;;6.30;2.50;;;;;;;;;;5449742;26;20011;-58
2024/04/08 02:22:01;;;;;;;4.57;2.25;;;;;;;;;;5452937;26;19999;-59
2024/04/08 02:24:28;;;;;;;5.88;2.47;;;;;;;;;;5448682;26;20446;-58
2024/04/08 02:26:54;;;;;;;6.18;2.53;;;;;;;;;;5449842;26;20007;-57
2024/04/08 02:29:20;;;;;;;5.00;2.20;;;;;;;;;;5434637;26;19996;-58
2024/04/08 02:31:46;;;;;;;4.85;2.75;;;;;;;;;;5450295;26;20017;-59
2024/04/08 02:34:12;;;;;;;4.78;2.40;;;;;;;;;;5442934;26;19998;-58
2024/04/08 02:36:38;;;;;;;9.55;2.47;;;;;;;;;;5441588;26;20013;-57
2024/04/08 02:39:04;;;;;;;4.53;2.60;;;;;;;;;;5442506;26;20010;-58
2024/04/08 02:41:30;;;;;;;4.22;2.55;;;;;;;;;;5451347;26;20010;-58
2024/04/08 02:43:56;;;;;;;3.65;2.20;;;;;;;;;;5451126;26;19999;-57
2024/04/08 02:46:22;;;;;;;3.92;2.08;;;;;;;;;;5449605;26;20013;-56
2024/04/08 02:48:50;;;;;;;8.15;2.28;;;;;;;;;;5445351;26;20039;-57
2024/04/08 02:51:16;;;;;;;4.05;2.50;;;;;;;;;;5419974;26;20010;-58
2024/04/08 02:53:42;;;;;;;10.98;2.50;;;;;;;;;;5440435;26;20418;-57
2024/04/08 02:56:08;;;;;;;3.63;2.28;;;;;;;;;;5447501;26;20347;-58
2024/04/08 02:58:34;;;;;;;9.35;3.17;;;;;;;;;;5435770;26;20072;-58
2024/04/08 03:01:03;;;;;;;3.47;2.15;;;;;;;;;;5448474;26;20033;-58
2024/04/08 03:03:29;;;;;;;4.85;2.33;;;;;;;;;;5432986;26;20010;-59
2024/04/08 03:05:55;;;;;;;8.25;2.70;;;;;;;;;;5444044;26;19998;-57
2024/04/08 03:08:21;;;;;;;4.78;2.58;;;;;;;;;;5449823;26;20236;-57
2024/04/08 03:10:47;;;;;;;9.35;2.63;;;;;;;;;;5452410;26;20104;-58
2024/04/08 03:13:13;;;;;;;6.65;2.58;;;;;;;;;;5448224;26;19999;-58
2024/04/08 03:15:39;;;;;;;8.15;2.42;;;;;;;;;;5416600;26;20000;-57
2024/04/08 03:18:08;;;;;;;6.32;2.50;;;;;;;;;;5424272;26;20027;-57
2024/04/08 03:20:34;;;;;;;6.75;2.53;;;;;;;;;;5450242;26;20431;-58
2024/04/08 03:23:00;;;;;;;4.63;2.47;;;;;;;;;;5450368;26;20009;-58
2024/04/08 03:25:26;;;;;;;6.63;2.75;;;;;;;;;;5451701;26;20040;-58
2024/04/08 03:27:54;;;;;;;4.50;2.63;;;;;;;;;;5448938;26;20027;-57
2024/04/08 03:30:20;;;;;;;4.88;2.70;;;;;;;;;;5449071;26;20005;-58
2024/04/08 03:32:46;;;;;;;6.63;2.97;;;;;;;;;;5443447;26;19995;-57
2024/04/08 03:35:12;;;;;;;4.95;2.50;;;;;;;;;;5440813;26;20038;-57
2024/04/08 03:37:37;;;;;;;9.68;2.95;;;;;;;;;;5448213;26;20009;-58
2024/04/08 03:40:04;;;;;;;8.52;2.67;;;;;;;;;;5451715;26;20010;-58
2024/04/08 03:42:30;;;;;;;7.70;3.03;;;;;;;;;;5431698;26;20031;-58
2024/04/08 03:44:56;;;;;;;7.35;2.80;;;;;;;;;;5434678;26;20030;-58
2024/04/08 03:47:22;;;;;;;5.20;2.45;;;;;;;;;;5452024;26;20016;-58
2024/04/08 03:49:51;;;;;;;7.07;3.17;;;;;;;;;;5446775;26;20039;-58
2024/04/08 03:52:17;;;;;;;8.95;2.85;;;;;;;;;;5436145;26;19996;-57
2024/04/08 03:54:43;;;;;;;7.95;2.55;;;;;;;;;;5444148;26;19999;-57
2024/04/08 03:57:09;;;;;;;6.22;2.50;;;;;;;;;;5427648;26;19991;-58
2024/04/08 03:59:35;;;;;;;7.35;3.05;;;;;;;;;;5449028;26;20030;-57
2024/04/08 04:02:01;;;;;;;4.90;2.40;;;;;;;;;;5443110;26;20010;-57
2024/04/08 04:04:27;;;;;;;6.85;2.33;;;;;;;;;;5408362;26;20014;-58
2024/04/08 04:06:53;;;;;;;5.93;2.58;;;;;;;;;;5446340;26;20003;-56
2024/04/08 04:09:19;;;;;;;6.22;2.30;;;;;;;;;;5450468;26;20406;-57
2024/04/08 04:11:45;;;;;;;4.47;2.65;;;;;;;;;;5445599;26;20026;-58
2024/04/08 04:14:11;;;;;;;5.68;2.83;;;;;;;;;;5440835;26;20045;-56
2024/04/08 04:16:37;;;;;;;5.20;2.58;;;;;;;;;;5446783;26;20028;-57
2024/04/08 04:19:03;;;;;;;5.57;2.83;;;;;;;;;;5439683;26;20010;-57
2024/04/08 04:21:29;;;;;;;7.32;2.60;;;;;;;;;;5445904;26;20035;-56
2024/04/08 04:23:55;;;;;;;9.80;3.20;;;;;;;;;;5451160;26;20057;-57
2024/04/08 04:26:21;;;;;;;6.32;2.58;;;;;;;;;;5449135;26;20540;-57
2024/04/08 04:28:47;;;;;;;8.32;2.42;;;;;;;;;;5447631;26;20377;-59
2024/04/08 04:31:13;;;;;;;6.95;3.10;;;;;;;;;;5450217;26;19999;-58
2024/04/08 04:33:39;;;;;;;3.92;2.60;;;;;;;;;;5447965;26;19999;-57
2024/04/08 04:36:05;;;;;;;4.53;2.80;;;;;;;;;;5441575;26;20439;-57
2024/04/08 04:38:31;;;;;;;8.98;2.83;;;;;;;;;;5445590;26;19999;-57
2024/04/08 04:41:01;;;;;;;5.55;2.80;;;;;;;;;;5447504;26;20432;-56
2024/04/08 04:43:27;;;;;;;5.63;2.42;;;;;;;;;;5449366;26;19999;-57
2024/04/08 04:45:53;;;;;;;5.28;2.90;;;;;;;;;;5448124;26;20100;-57
2024/04/08 04:48:19;;;;;;;5.25;2.67;;;;;;;;;;5446987;26;19999;-57
2024/04/08 04:50:46;;;;;;;7.80;3.00;;;;;;;;;;5446979;26;20040;-57
2024/04/08 04:53:12;;;;;;;4.20;2.25;;;;;;;;;;5440888;26;20002;-58
2024/04/08 04:55:38;;;;;;;3.90;2.45;;;;;;;;;;5447075;26;20003;-56
2024/04/08 04:58:04;;;;;;;4.22;2.30;;;;;;;;;;5448313;26;20021;-57
2024/04/08 05:00:31;;;;;;;5.68;2.85;;;;;;;;;;5448764;26;19995;-57
2024/04/08 05:02:58;;;;;;;7.07;2.60;;;;;;;;;;5446757;26;20010;-57
2024/04/08 05:05:24;;;;;;;6.75;2.78;;;;;;;;;;5434658;26;20077;-58
2024/04/08 05:07:50;;;;;;;6.20;3.25;;;;;;;;;;5446401;26;20010;-61
2024/04/08 05:10:17;;;;;;;5.43;2.97;;;;;;;;;;5442195;26;20010;-59
2024/04/08 05:12:44;;;;;;;8.88;3.00;;;;;;;;;;5434878;26;20384;-59
2024/04/08 05:15:10;;;;;;;10.43;2.72;;;;;;;;;;5449796;26;20014;-58
2024/04/08 05:17:36;;;;;;;5.45;2.65;;;;;;;;;;5447985;26;20480;-60
2024/04/08 05:20:03;;;;;;;6.00;2.72;;;;;;;;;;5441065;26;19996;-60
2024/04/08 05:22:30;;;;;;;5.43;2.78;;;;;;;;;;5437228;26;20467;-60
2024/04/08 05:24:56;;;;;;;5.93;3.08;;;;;;;;;;5448322;26;20009;-59
2024/04/08 05:27:23;;;;;;;4.90;2.55;;;;;;;;;;5449344;26;20331;-59
2024/04/08 05:29:49;;;;;;;5.95;2.92;;;;;;;;;;5445874;26;20055;-58
2024/04/08 05:32:15;;;;;;;7.30;2.88;;;;;;;;;;5433341;26;20162;-60
2024/04/08 05:34:41;;;;;;;8.13;3.63;;;;;;;;;;5447168;26;20011;-60
2024/04/08 05:37:07;;;;;;;7.45;2.92;;;;;;;;;;5447604;26;20431;-59
2024/04/08 05:39:33;;;;;;;5.35;2.75;;;;;;;;;;5444662;26;20071;-60
2024/04/08 05:42:00;;;;;;;6.97;2.97;;;;;;;;;;5455833;26;20009;-60
2024/04/08 05:44:26;;;;;;;5.22;3.38;;;;;;;;;;5418286;26;20421;-59
2024/04/08 05:46:52;;;;;;;4.13;2.78;;;;;;;;;;5441944;26;20033;-59
2024/04/08 05:49:18;;;;;;;4.07;2.70;;;;;;;;;;5450780;26;20463;-59
2024/04/08 05:51:44;;;;;;;3.85;2.58;;;;;;;;;;5439594;26;19999;-59
2024/04/08 05:54:10;;;;;;;5.40;2.40;;;;;;;;;;5451713;26;20023;-59
2024/04/08 05:56:36;;;;;;;5.88;3.70;;;;;;;;;;5450389;26;20084;-60
2024/04/08 05:59:02;;;;;;;7.93;2.97;;;;;;;;;;5452721;26;20508;-60
2024/04/08 06:01:28;;;;;;;10.38;3.00;;;;;;;;;;5452436;26;20421;-60
2024/04/08 06:03:54;;;;;;;6.47;3.13;;;;;;;;;;5443631;26;20357;-60
2024/04/08 06:06:20;;;;;;;4.57;2.58;;;;;;;;;;5459602;26;20057;-59
2024/04/08 06:08:54;;;;;;;9.27;2.85;;;;;;;;;;5416017;26;19995;-59
2024/04/08 06:11:20;;;;;;;3.65;2.40;;;;;;;;;;5446060;26;20437;-58
2024/04/08 06:13:46;;;;;;;12.43;3.55;;;;;;;;;;5438246;26;20097;-60
2024/04/08 06:16:11;;;;;;;11.77;2.90;;;;;;;;;;5446608;26;20009;-60
2024/04/08 06:18:37;;;;;;;11.23;3.05;;;;;;;;;;5447315;26;20036;-60
2024/04/08 06:21:04;;;;;;;8.75;3.10;;;;;;;;;;5447772;26;19995;-59
2024/04/08 06:23:29;;;;;;;5.68;2.78;;;;;;;;;;5448789;26;20075;-60
2024/04/08 06:26:02;;;;;;;10.82;2.90;;;;;;;;;;5447612;26;20030;-60
2024/04/08 06:28:28;;;;;;;6.10;2.83;;;;;;;;;;5449862;26;20002;-59
2024/04/08 06:30:55;;;;;;;6.03;3.00;;;;;;;;;;5444335;26;20482;-60
2024/04/08 06:33:21;;;;;;;9.15;3.65;;;;;;;;;;5438728;26;20342;-60
2024/04/08 06:35:47;;;;;;;7.82;3.30;;;;;;;;;;5447167;26;19995;-59
2024/04/08 06:38:13;;;;;;;5.82;2.60;;;;;;;;;;5451365;26;20010;-60
2024/04/08 06:40:43;;;;;;;7.63;3.35;;;;;;;;;;5450863;26;20365;-60
2024/04/08 06:43:09;;;;;;;5.30;2.67;;;;;;;;;;5451715;26;20027;-60
2024/04/08 06:45:35;;;;;;;8.55;3.78;;;;;;;;;;5450825;26;20011;-60
2024/04/08 06:48:01;;;;;;;7.82;2.88;;;;;;;;;;5449634;26;20443;-61
2024/04/08 06:50:27;;;;;;;6.75;3.25;;;;;;;;;;5446071;26;20007;-59
2024/04/08 06:52:53;;;;;;;9.50;3.10;;;;;;;;;;5439311;26;20013;-60
2024/04/08 06:55:19;;;;;;;7.00;2.83;;;;;;;;;;5449566;26;19999;-60
2024/04/08 06:57:48;;;;;;;11.50;2.95;;;;;;;;;;5451733;26;20021;-59
2024/04/08 07:00:14;;;;;;;10.30;3.28;;;;;;;;;;5450858;26;20014;-60
2024/04/08 07:02:40;;;;;;;10.20;2.88;;;;;;;;;;5449301;26;20336;-59
2024/04/08 07:05:07;;;;;;;7.00;2.67;;;;;;;;;;5451273;26;20007;-60
2024/04/08 07:07:33;;;;;;;4.47;2.08;;;;;;;;;;5443934;26;20403;-59
2024/04/08 07:09:59;;;;;;;7.60;3.17;;;;;;;;;;5447617;26;20007;-60
2024/04/08 07:12:25;;;;;;;4.25;2.70;;;;;;;;;;5449531;26;21715;-60
2024/04/08 07:14:52;;;;;;;6.45;3.03;;;;;;;;;;5444417;26;20030;-60
2024/04/08 07:17:18;;;;;;;5.60;3.17;;;;;;;;;;5435394;26;20049;-58
2024/04/08 07:19:45;;;;;;;7.95;2.65;;;;;;;;;;5449030;26;20014;-60
2024/04/08 07:22:11;;;;;;;5.93;2.35;;;;;;;;;;5449696;26;20419;-60
2024/04/08 07:24:37;;;;;;;6.55;2.72;;;;;;;;;;5448542;26;20002;-60
2024/04/08 07:27:05;;;;;;;5.45;2.10;;;;;;;;;;5445747;26;20043;-60
2024/04/08 07:29:31;;;;;;;5.95;2.40;;;;;;;;;;5451905;26;19998;-57
2024/04/08 07:31:57;;;;;;;5.57;2.90;;;;;;;;;;5447708;26;20315;-57
2024/04/08 07:34:23;;;;;;;6.88;2.45;;;;;;;;;;5450804;26;20431;-57
2024/04/08 07:36:49;;;;;;;4.18;2.47;;;;;;;;;;5450717;26;20075;-57
2024/04/08 07:39:15;;;;;;;10.63;2.70;;;;;;;;;;5450507;26;20072;-57
2024/04/08 07:41:41;;;;;;;5.28;2.20;;;;;;;;;;5450924;26;20049;-58
2024/04/08 07:44:07;;;;;;;6.93;2.40;;;;;;;;;;5448933;26;20027;-58
2024/04/08 07:46:33;;;;;;;6.68;2.10;;;;;;;;;;5447405;26;20002;-57
2024/04/08 07:48:59;;;;;;;8.70;2.60;;;;;;;;;;5451127;26;20367;-58
2024/04/08 07:51:25;;;;;;;6.75;2.60;;;;;;;;;;5445093;26;20009;-57
2024/04/08 07:53:51;;;;;;;7.30;3.35;;;;;;;;;;5447861;26;20009;-58
2024/04/08 07:56:17;;;;;;;7.68;2.90;;;;;;;;;;5444708;26;20460;-57
2024/04/08 07:58:43;;;;;;;7.88;2.47;;;;;;;;;;5451030;26;20079;-57
2024/04/08 08:01:09;;;;;;;8.30;3.25;;;;;;;;;;5448059;26;20197;-58
2024/04/08 08:03:35;;;;;;;7.07;2.42;;;;;;;;;;5449394;26;20014;-57
2024/04/08 08:06:02;;;;;;;5.07;2.50;;;;;;;;;;5418710;26;19995;-57
2024/04/08 08:08:28;;;;;;;5.32;2.70;;;;;;;;;;5450288;26;20031;-58
2024/04/08 08:10:57;;;;;;;8.52;3.35;;;;;;;;;;5450454;26;20022;-58
2024/04/08 08:13:23;;;;;;;8.95;3.17;;;;;;;;;;5432321;26;20907;-58
2024/04/08 08:15:56;;;;;;;6.75;3.03;;;;;;;;;;5450810;26;20039;-57
2024/04/08 08:18:22;;;;;;;6.25;2.95;;;;;;;;;;5450740;26;19999;-58
2024/04/08 08:20:47;;;;;;;9.50;2.90;;;;;;;;;;5450320;26;20009;-57
2024/04/08 08:23:15;;;;;;;9.32;2.92;;;;;;;;;;5447112;26;20023;-57
2024/04/08 08:25:41;;;;;;;10.38;3.20;;;;;;;;;;5450517;26;20010;-58
2024/04/08 08:28:07;;;;;;;8.18;2.78;;;;;;;;;;5450301;26;19999;-58
2024/04/08 08:30:36;;;;;;;7.70;2.78;;;;;;;;;;5450752;26;20670;-57
2024/04/08 08:33:03;;;;;;;6.88;2.97;;;;;;;;;;5449748;26;20027;-60
2024/04/08 08:35:30;;;;;;;8.27;2.58;;;;;;;;;;5448211;26;20364;-58
2024/04/08 08:37:56;;;;;;;6.47;2.42;;;;;;;;;;5447589;26;20076;-60
2024/04/08 08:40:23;;;;;;;7.05;2.50;;;;;;;;;;5449329;26;20499;-60
2024/04/08 08:42:51;;;;;;;8.70;2.80;;;;;;;;;;5449097;26;19995;-60
2024/04/08 08:45:17;;;;;;;7.70;2.83;;;;;;;;;;5449736;26;19995;-60
2024/04/08 08:47:44;;;;;;;6.70;2.38;;;;;;;;;;5449575;26;20009;-60
2024/04/08 08:50:10;;;;;;;6.65;2.50;;;;;;;;;;5449593;26;19999;-61
2024/04/08 08:52:37;;;;;;;4.20;2.30;;;;;;;;;;5442697;26;20002;-61
2024/04/08 08:55:03;;;;;;;5.50;2.55;;;;;;;;;;5447388;26;20009;-60
2024/04/08 08:57:30;;;;;;;9.20;2.10;;;;;;;;;;5449534;26;20418;-60
2024/04/08 08:59:58;;;;;;;6.88;2.45;;;;;;;;;;5449340;26;20455;-60
2024/04/08 09:02:25;;;;;;;4.82;2.08;;;;;;;;;;5447303;26;20011;-61
2024/04/08 09:04:52;;;;;;;5.63;2.55;;;;;;;;;;5452223;26;19995;-61
2024/04/08 09:07:18;;;;;;;5.55;2.60;;;;;;;;;;5446774;26;20021;-61
2024/04/08 09:09:56;;;;;;;4.63;2.33;;;;;;;;;;5444328;26;19994;-59
2024/04/08 09:12:23;;;;;;;6.03;2.13;;;;;;;;;;5452517;26;20031;-61
2024/04/08 09:14:52;;;;;;;7.25;2.67;;;;;;;;;;5453234;26;19999;-61
2024/04/08 09:17:18;;;;;;;6.75;2.38;;;;;;;;;;5452519;26;20044;-61
2024/04/08 09:19:45;;;;;;;4.68;2.53;;;;;;;;;;5453081;26;20087;-60
2024/04/08 09:22:11;;;;;;;7.07;2.05;;;;;;;;;;5441121;26;20003;-60
2024/04/08 09:24:38;;;;;;;7.53;2.47;;;;;;;;;;5452954;26;19991;-61
2024/04/08 09:27:04;;;;;;;9.52;2.80;;;;;;;;;;5452550;26;20002;-60
2024/04/08 09:29:30;;;;;;;8.60;2.33;;;;;;;;;;5452907;26;20094;-61
2024/04/08 09:31:58;;;;;;;8.32;2.90;;;;;;;;;;5452790;26;20417;-60
2024/04/08 09:34:24;;;;;;;8.82;2.47;;;;;;;;;;5448853;26;20470;-60
2024/04/08 09:36:50;;;;;;;6.82;2.85;;;;;;;;;;5412234;26;20010;-60
2024/04/08 09:39:17;;;;;;;10.95;3.10;;;;;;;;;;5452848;26;20085;-60
2024/04/08 09:41:44;;;;;;;8.75;3.08;;;;;;;;;;5452833;26;20038;-61
2024/04/08 09:44:13;;;;;;;11.20;2.85;;;;;;;;;;5420354;26;20073;-60
2024/04/08 09:46:40;;;;;;;5.53;2.33;;;;;;;;;;5452946;26;20002;-60
2024/04/08 09:49:09;;;;;;;7.68;3.03;;;;;;;;;;5452959;26;19995;-60
2024/04/08 09:51:36;;;;;;;10.57;2.80;;;;;;;;;;5444814;26;20006;-61
2024/04/08 09:54:02;;;;;;;9.13;3.03;;;;;;;;;;5445029;26;20295;-60
2024/04/08 09:56:30;;;;;;;12.15;3.30;;;;;;;;;;5452135;26;20048;-60
2024/04/08 09:59:04;;;;;;;7.03;2.55;;;;;;;;;;5452728;26;20002;-60
2024/04/08 10:01:31;;;;;;;9.40;2.88;;;;;;;;;;5452463;26;20076;-60
2024/04/08 10:04:00;;;;;;;7.03;2.58;;;;;;;;;;5449364;26;20006;-60
2024/04/08 10:06:26;;;;;;;8.05;2.65;;;;;;;;;;5450598;26;20079;-60
2024/04/08 10:08:53;;;;;;;10.07;2.72;;;;;;;;;;5449600;26;20006;-61
2024/04/08 10:11:19;;;;;;;10.10;2.50;;;;;;;;;;5451804;26;20043;-60
2024/04/08 10:13:48;;;;;;;8.20;2.17;;;;;;;;;;5452119;26;20083;-60
2024/04/08 10:16:14;;;;;;;4.95;2.53;;;;;;;;;;5451706;26;19999;-60
2024/04/08 10:19:07;;;;;;;8.85;2.85;;;;;;;;;;5450839;26;19995;-61
2024/04/08 10:21:33;;;;;;;11.38;2.40;;;;;;;;;;5427715;26;20331;-61
2024/04/08 10:23:59;;;;;;;10.65;2.85;;;;;;;;;;5451783;26;19995;-60
2024/04/08 10:26:28;;;;;;;17.80;2.75;;;;;;;;;;5452405;26;20088;-60
2024/04/08 10:28:54;;;;;;;7.32;2.40;;;;;;;;;;5451693;26;20004;-61
2024/04/08 10:31:21;;;;;;;8.00;2.70;;;;;;;;;;5452514;26;19998;-60
2024/04/08 10:33:47;;;;;;;8.98;2.30;;;;;;;;;;5451518;26;20469;-60
2024/04/08 10:36:13;;;;;;;9.00;2.20;;;;;;;;;;5452260;26;19998;-60
2024/04/08 10:38:39;;;;;;;9.45;2.40;;;;;;;;;;5440544;26;20466;-61
2024/04/08 10:41:08;;;;;;;5.63;2.75;;;;;;;;;;5451880;26;19999;-61
2024/04/08 10:43:34;;;;;;;9.40;2.45;;;;;;;;;;5451094;26;19999;-60
2024/04/08 10:46:02;;;;;;;9.43;2.03;;;;;;;;;;5452261;26;20079;-60
2024/04/08 10:48:28;;;;;;;8.70;1.95;;;;;;;;;;5452093;26;20039;-60
2024/04/08 10:50:55;;;;;;;7.75;2.22;;;;;;;;;;5451134;26;19995;-61
2024/04/08 10:53:21;;;;;;;7.80;2.03;;;;;;;;;;5450372;26;20459;-60
2024/04/08 10:55:47;;;;;;;7.38;1.90;;;;;;;;;;5451864;26;20002;-60
2024/04/08 10:58:14;;;;;;;5.05;2.17;;;;;;;;;;5448975;26;20005;-58
2024/04/08 11:00:40;;;;;;;9.00;1.88;;;;;;;;;;5451710;26;20405;-59
2024/04/08 11:03:06;;;;;;;4.28;1.48;;;;;;;;;;5450435;26;20327;-59
2024/04/08 11:05:32;;;;;;;15.60;2.63;;;;;;;;;;5447235;26;20002;-59
2024/04/08 11:07:58;;;;;;;10.88;1.63;;;;;;;;;;5450408;26;19999;-58
2024/04/08 11:10:24;;;;;;;6.43;1.52;;;;;;;;;;5451644;26;19995;-58
2024/04/08 11:12:50;;;;;;;1.92;1.35;;;;;;;;;;5450124;26;20031;-59
2024/04/08 11:15:16;;;;;;;7.35;2.13;;;;;;;;;;5451352;26;19998;-58
2024/04/08 11:17:42;;;;;;;13.25;2.20;;;;;;;;;;5451387;26;20433;-58
2024/04/08 11:20:12;;;;;;;14.80;2.33;;;;;;;;;;5449999;26;20003;-58
2024/04/08 11:22:38;;;;;;;6.63;1.90;;;;;;;;;;5450281;26;20014;-59
2024/04/08 11:25:05;;;;;;;9.20;2.05;;;;;;;;;;5451493;26;20442;-58
2024/04/08 11:27:33;;;;;;;5.13;1.77;;;;;;;;;;5449665;26;20097;-59
2024/04/08 11:29:59;;;;;;;11.48;2.17;;;;;;;;;;5420381;26;20010;-59
2024/04/08 11:32:25;;;;;;;8.75;1.70;;;;;;;;;;5450596;26;20030;-60
2024/04/08 11:34:51;;;;;;;7.22;1.40;;;;;;;;;;5451537;26;20440;-58
2024/04/08 11:37:17;;;;;;;5.80;1.42;;;;;;;;;;5450872;26;20071;-58
2024/04/08 11:39:44;;;;;;;14.50;2.05;;;;;;;;;;5439147;26;20007;-59
2024/04/08 11:42:10;;;;;;;5.57;1.45;;;;;;;;;;5449932;26;20014;-58
2024/04/08 11:44:42;;;;;;;3.88;1.73;;;;;;;;;;5451399;26;20009;-59
2024/04/08 11:47:09;;;;;;;4.10;1.70;;;;;;;;;;5451049;26;20007;-58
2024/04/08 11:49:36;;;;;;;9.57;1.65;;;;;;;;;;5448726;26;19998;-59
2024/04/08 11:52:04;;;;;;;6.47;1.52;;;;;;;;;;5449379;26;20018;-59
2024/04/08 11:54:30;;;;;;;10.25;1.65;;;;;;;;;;5448783;26;20031;-59
2024/04/08 11:56:57;;;;;;;11.15;1.70;;;;;;;;;;5445023;26;20356;-60
2024/04/08 11:59:24;;;;;;;14.00;1.48;;;;;;;;;;5450979;26;20104;-59
2024/04/08 12:01:49;;;;;;;8.10;2.20;;;;;;;;;;5450918;26;20343;-59
2024/04/08 12:04:15;;;;;;;12.60;1.92;;;;;;;;;;5450696;26;19999;-59
2024/04/08 12:06:42;;;;;;;7.60;1.40;;;;;;;;;;5448879;26;20399;-58
2024/04/08 12:09:08;;;;;;;10.43;1.80;;;;;;;;;;5449069;26;20474;-58
2024/04/08 12:11:34;;;;;;;8.35;1.60;;;;;;;;;;5448465;26;20003;-58
2024/04/08 12:14:00;;;;;;;9.43;1.42;;;;;;;;;;5450270;26;20067;-56
2024/04/08 12:16:26;;;;;;;8.18;2.08;;;;;;;;;;5450903;26;20071;-57
2024/04/08 12:18:52;;;;;;;9.43;1.88;;;;;;;;;;5419322;26;20013;-59
2024/04/08 12:21:18;;;;;;;9.68;1.83;;;;;;;;;;5448646;26;20067;-57
2024/04/08 12:23:44;;;;;;;8.50;1.83;;;;;;;;;;5445420;26;20435;-57
2024/04/08 12:26:13;;;;;;;11.73;1.70;;;;;;;;;;5450830;26;20312;-58
2024/04/08 12:28:39;;;;;;;10.80;2.35;;;;;;;;;;5466625;26;20008;-59
2024/04/08 12:31:05;;;;;;;6.53;1.55;;;;;;;;;;5448655;26;20342;-58
2024/04/08 12:33:32;;;;;;;6.72;1.48;;;;;;;;;;5448875;26;19994;-58
2024/04/08 12:35:57;;;;;;;13.02;1.85;;;;;;;;;;5418219;26;20014;-57
2024/04/08 12:38:23;;;;;;;9.27;1.40;;;;;;;;;;5450332;26;19999;-60
2024/04/08 12:40:50;;;;;;;9.98;1.92;;;;;;;;;;5451538;26;19998;-59
2024/04/08 12:43:16;;;;;;;5.68;1.73;;;;;;;;;;5449276;26;20463;-59
2024/04/08 12:45:42;;;;;;;4.68;1.23;;;;;;;;;;5439656;26;20002;-57
2024/04/08 12:48:08;;;;;;;8.75;1.30;;;;;;;;;;5437851;26;19995;-57
2024/04/08 12:50:35;;;;;;;10.98;1.30;;;;;;;;;;5450276;26;19999;-57
2024/04/08 12:53:01;;;;;;;7.68;1.85;;;;;;;;;;5451290;26;20003;-56
2024/04/08 12:55:28;;;;;;;12.52;1.65;;;;;;;;;;5439674;26;20002;-57
2024/04/08 12:57:54;;;;;;;10.52;1.50;;;;;;;;;;5445315;26;20130;-57
2024/04/08 13:00:20;;;;;;;7.72;1.52;;;;;;;;;;5444103;26;20003;-58
2024/04/08 13:02:46;;;;;;;8.80;1.55;;;;;;;;;;5439102;26;20115;-57
2024/04/08 13:05:12;;;;;;;5.97;1.73;;;;;;;;;;5441211;26;20100;-61
2024/04/08 13:07:39;;;;;;;7.15;1.70;;;;;;;;;;5442462;26;19999;-58
2024/04/08 13:10:05;;;;;;;7.55;1.35;;;;;;;;;;5438637;26;20003;-57
2024/04/08 13:12:31;;;;;;;12.90;1.45;;;;;;;;;;5451891;26;20003;-57
2024/04/08 13:14:57;;;;;;;20.73;2.30;;;;;;;;;;5441706;26;20447;-58
2024/04/08 13:17:23;;;;;;;9.38;1.60;;;;;;;;;;5446041;26;20013;-57
2024/04/08 13:19:49;;;;;;;7.90;1.30;;;;;;;;;;5453096;26;19998;-58
2024/04/08 13:22:15;;;;;;;12.50;1.70;;;;;;;;;;5449117;26;20014;-58
2024/04/08 13:24:41;;;;;;;12.40;1.75;;;;;;;;;;5441036;26;20015;-57
2024/04/08 13:27:07;;;;;;;13.02;1.80;;;;;;;;;;5438730;26;20015;-59
2024/04/08 13:29:32;;;;;;;3.25;1.05;;;;;;;;;;5471038;26;20011;-61
2024/04/08 13:31:58;;;;;;;7.03;1.33;;;;;;;;;;5451791;26;20018;-62
2024/04/08 13:34:24;;;;;;;7.75;1.77;;;;;;;;;;5448150;26;20071;-62
2024/04/08 13:36:50;;;;;;;11.38;1.80;;;;;;;;;;5453127;26;20089;-62
2024/04/08 13:39:19;;;;;;;16.02;1.80;;;;;;;;;;5449644;26;20006;-63
2024/04/08 13:41:45;;;;;;;4.20;1.00;;;;;;;;;;5441874;26;20002;-61
2024/04/08 13:44:11;;;;;;;17.73;1.70;;;;;;;;;;5440940;26;20464;-62
2024/04/08 13:46:37;;;;;;;10.65;1.80;;;;;;;;;;5431305;26;20787;-62
2024/04/08 13:49:03;;;;;;;5.50;1.33;;;;;;;;;;5435280;26;19999;-61
2024/04/08 13:51:29;;;;;;;12.98;2.13;;;;;;;;;;5443816;26;20005;-63
2024/04/08 13:53:55;;;;;;;7.07;1.40;;;;;;;;;;5443898;26;19999;-62
2024/04/08 13:56:21;;;;;;;6.20;2.03;;;;;;;;;;5436027;26;20006;-62
2024/04/08 13:58:49;;;;;;;11.25;2.10;;;;;;;;;;5444872;26;20013;-61
2024/04/08 14:01:16;;;;;;;9.07;2.08;;;;;;;;;;5437541;26;20009;-62
2024/04/08 14:03:42;;;;;;;7.63;1.17;;;;;;;;;;5447536;26;20003;-62
2024/04/08 14:06:08;;;;;;;5.32;1.60;;;;;;;;;;5449166;26;20002;-61
2024/04/08 14:08:35;;;;;;;8.05;1.55;;;;;;;;;;5445168;26;20431;-62
2024/04/08 14:11:01;;;;;;;13.02;2.53;;;;;;;;;;5448531;26;19999;-61
2024/04/08 14:13:27;;;;;;;8.65;1.40;;;;;;;;;;5455670;26;20010;-62
2024/04/08 14:15:53;;;;;;;8.80;1.50;;;;;;;;;;5455664;26;20618;-62
2024/04/08 14:18:19;;;;;;;12.07;1.63;;;;;;;;;;5442769;26;20030;-64
2024/04/08 14:20:45;;;;;;;13.90;1.83;;;;;;;;;;5423639;26;20022;-62
2024/04/08 14:23:11;;;;;;;9.05;1.77;;;;;;;;;;5455324;26;19998;-61
2024/04/08 14:25:37;;;;;;;5.88;1.50;;;;;;;;;;5447251;26;20003;-61
2024/04/08 14:28:04;;;;;;;9.07;1.48;;;;;;;;;;5441369;26;20003;-64
2024/04/08 14:30:30;;;;;;;14.98;1.52;;;;;;;;;;5434514;26;19995;-64
2024/04/08 14:32:57;;;;;;;6.95;1.42;;;;;;;;;;5435798;26;19999;-62
2024/04/08 14:35:23;;;;;;;11.82;2.10;;;;;;;;;;5442778;26;19994;-64